Hai Run — 9LU2533 — position and weather

sailwx.info

Track history (hours):
 
Tides and Currents Weather Stations Pressure Air Temp Water Temp Dewpoint Dewpoint Depression Visibility Wind Speed Wind Dir Waves Ship Positions

Hai Run

Last reported at 2017-Sep-28 09:06 UTC. Time now 2017-Oct-23 04:34 UTC.
Position N 29°25' E 122°25'.
Warning: this ship's position is 24 days out of date.

Length 78 m; draft 4.5 m.

Type: Cargo ship. MMSI: 667001730.

Date/timePositionNaut miles runAvg speedWind from/ knotsBaromVisibWave heightAir tempDewpointWater temp
2017-Sep-28 09:06N 29°25' E 122°25'110.4
2017-Sep-28 08:58N 29°26' E 122°26'5 9.7
2017-Sep-28 08:30N 29°30' E 122°28'8 9.6
2017-Sep-28 07:40N 29°37' E 122°33'210.0
2017-Sep-28 07:28N 29°39' E 122°34'5 9.3
2017-Sep-28 06:54N 29°43' E 122°37'510.3
2017-Sep-28 06:26N 29°48' E 122°38'  
2017-Sep-23 22:17N 34°09' E 134°44'16 8.8
2017-Sep-23 20:29N 33°57' E 134°57'255 6.0
2017-Sep-22 02:00N 35°31' E 139°45'0 0.0
2017-Sep-22 01:24N 35°31' E 139°45'0 0.0
2017-Sep-22 00:57N 35°31' E 139°45'0 0.0
2017-Sep-22 00:30N 35°31' E 139°45'0 0.0
2017-Sep-22 00:00N 35°31' E 139°45'0 0.0
2017-Sep-21 23:30N 35°31' E 139°45'0 0.0
2017-Sep-21 23:00N 35°31' E 139°45'0 0.0
2017-Sep-21 22:30N 35°31' E 139°45'0 0.0
2017-Sep-21 22:00N 35°31' E 139°45'0 0.0
2017-Sep-21 21:30N 35°31' E 139°45'0 0.0
2017-Sep-21 21:00N 35°31' E 139°45'0 0.0
2017-Sep-21 20:30N 35°31' E 139°45'0 0.0
2017-Sep-21 20:00N 35°31' E 139°45'0 0.0
2017-Sep-21 19:30N 35°31' E 139°45'0 0.0
2017-Sep-21 19:00N 35°31' E 139°45'0 0.0
2017-Sep-21 18:30N 35°31' E 139°45'0 0.0
2017-Sep-21 18:00N 35°31' E 139°45'0 0.0
2017-Sep-21 17:30N 35°31' E 139°45'0 0.0
2017-Sep-21 17:00N 35°31' E 139°45'0 0.0
2017-Sep-21 16:30N 35°31' E 139°45'0 0.0
2017-Sep-21 16:00N 35°31' E 139°45'0 0.0
2017-Sep-21 15:30N 35°31' E 139°45'0 0.0
2017-Sep-21 15:00N 35°31' E 139°45'0 0.0
2017-Sep-21 14:30N 35°31' E 139°45'0 0.0
2017-Sep-21 14:00N 35°31' E 139°45'0 0.0
2017-Sep-21 13:30N 35°31' E 139°45'0 0.0
2017-Sep-21 13:00N 35°31' E 139°45'0 0.0
2017-Sep-21 12:30N 35°31' E 139°45'0 0.0
2017-Sep-21 12:00N 35°31' E 139°45'0 0.0
2017-Sep-21 11:30N 35°31' E 139°45'0 0.0
2017-Sep-21 11:00N 35°31' E 139°45'0 0.0
2017-Sep-21 10:30N 35°31' E 139°45'0 0.0
2017-Sep-21 09:57N 35°31' E 139°45'0 0.0
2017-Sep-21 09:30N 35°31' E 139°45'0 0.0
2017-Sep-21 08:57N 35°31' E 139°45'0 0.0
2017-Sep-21 08:30N 35°31' E 139°45'0 0.0
2017-Sep-21 08:00N 35°31' E 139°45'0 0.0
2017-Sep-21 07:30N 35°31' E 139°45'0 0.0
2017-Sep-21 07:00N 35°31' E 139°45'0 0.0
2017-Sep-21 06:30N 35°31' E 139°45'0 0.0
2017-Sep-21 06:00N 35°31' E 139°45'0 0.0
2017-Sep-21 05:30N 35°31' E 139°45'0 0.0
2017-Sep-21 05:00N 35°31' E 139°45'0 0.0
2017-Sep-21 04:30N 35°31' E 139°45'0 0.0
2017-Sep-21 04:00N 35°31' E 139°45'0 0.0
2017-Sep-21 03:30N 35°31' E 139°45'0 0.0
2017-Sep-21 03:00N 35°31' E 139°45'0 0.0
2017-Sep-21 02:30N 35°31' E 139°45'0 0.0
2017-Sep-21 02:00N 35°31' E 139°45'0 0.0
2017-Sep-21 01:30N 35°31' E 139°45'0 0.0
2017-Sep-21 01:00N 35°31' E 139°45'0 0.0
2017-Sep-21 00:30N 35°31' E 139°45'0 0.0
2017-Sep-20 23:54N 35°31' E 139°45'0 0.0
2017-Sep-20 23:27N 35°31' E 139°45'0 0.0
2017-Sep-20 22:59N 35°31' E 139°45'0 0.0
2017-Sep-20 22:29N 35°31' E 139°45'0 0.0
2017-Sep-20 21:59N 35°31' E 139°45'0 0.0
2017-Sep-20 21:29N 35°31' E 139°45'0 0.0
2017-Sep-20 20:59N 35°31' E 139°45'0 0.0
2017-Sep-20 20:29N 35°31' E 139°45'0 0.0
2017-Sep-20 19:59N 35°31' E 139°45'0 0.0
2017-Sep-20 19:29N 35°31' E 139°45'0 0.0
2017-Sep-20 18:59N 35°31' E 139°45'0 0.0
2017-Sep-20 18:29N 35°31' E 139°45'0 0.0
2017-Sep-20 17:59N 35°31' E 139°45'0 0.0
2017-Sep-20 17:26N 35°31' E 139°45'0 0.0
2017-Sep-20 16:59N 35°31' E 139°45'0 0.0
2017-Sep-20 16:29N 35°31' E 139°45'0 0.0
2017-Sep-20 15:59N 35°31' E 139°45'0 0.0
2017-Sep-20 15:29N 35°31' E 139°45'0 0.0
2017-Sep-20 14:56N 35°31' E 139°45'0 0.0
2017-Sep-20 13:44N 35°31' E 139°45'0 0.0
2017-Sep-20 13:17N 35°31' E 139°45'0 0.0
2017-Sep-20 12:59N 35°31' E 139°45'0 0.0
2017-Sep-20 12:29N 35°31' E 139°45'0 0.0
2017-Sep-20 11:47N 35°31' E 139°45'0 0.0
2017-Sep-20 11:29N 35°31' E 139°45'0 0.0
2017-Sep-20 10:59N 35°31' E 139°45'0 0.0
2017-Sep-20 10:23N 35°31' E 139°45'0 0.0
2017-Sep-20 09:59N 35°31' E 139°45'0 0.0
2017-Sep-20 09:29N 35°31' E 139°45'0 0.0
2017-Sep-20 08:59N 35°31' E 139°45'0 0.0
2017-Sep-20 08:29N 35°31' E 139°45'0 0.0
2017-Sep-20 07:59N 35°31' E 139°45'0 0.0
2017-Sep-20 07:29N 35°31' E 139°45'0 0.0
2017-Sep-20 06:59N 35°31' E 139°45'0 0.0
2017-Sep-20 06:26N 35°31' E 139°45'0 0.0
2017-Sep-20 05:59N 35°31' E 139°45'0 0.0
2017-Sep-20 05:29N 35°31' E 139°45'0 0.0
2017-Sep-20 04:59N 35°31' E 139°45'0 0.0
2017-Sep-20 04:29N 35°31' E 139°45'0 0.0
2017-Sep-20 03:56N 35°31' E 139°45'0 0.0
2017-Sep-20 03:26N 35°31' E 139°45'0 0.0
2017-Sep-20 02:59N 35°31' E 139°45'0 0.0
2017-Sep-20 02:26N 35°31' E 139°45'0 0.0
2017-Sep-20 01:59N 35°31' E 139°45'0 0.0
2017-Sep-20 01:26N 35°31' E 139°45'0 0.0
2017-Sep-20 00:59N 35°31' E 139°45'0 0.0
2017-Sep-20 00:29N 35°31' E 139°45'0 0.0
2017-Sep-19 23:59N 35°31' E 139°45'0 0.0
2017-Sep-19 23:29N 35°31' E 139°45'0 0.0
2017-Sep-19 22:59N 35°31' E 139°45'0 0.0
2017-Sep-19 22:29N 35°31' E 139°45'1 1.7
2017-Sep-19 22:00N 35°30' E 139°45'3 6.6
2017-Sep-19 21:30N 35°27' E 139°43'1 1.6
2017-Sep-19 20:59N 35°26' E 139°43'0 0.0
2017-Sep-19 20:29N 35°26' E 139°43'0 0.0
2017-Sep-19 19:58N 35°26' E 139°43'0 0.0
2017-Sep-19 19:28N 35°26' E 139°43'0 0.1
2017-Sep-19 18:58N 35°26' E 139°43'0 0.0
2017-Sep-19 18:28N 35°26' E 139°43'0 0.0
2017-Sep-19 17:58N 35°26' E 139°43'0 0.0
2017-Sep-19 17:28N 35°26' E 139°43'0 0.0
2017-Sep-19 16:58N 35°26' E 139°43'0 0.0
2017-Sep-19 16:28N 35°26' E 139°43'0 0.0
2017-Sep-19 15:58N 35°26' E 139°43'0 0.0
2017-Sep-19 15:28N 35°26' E 139°43'0 0.0
2017-Sep-19 14:58N 35°26' E 139°43'0 0.0
2017-Sep-19 14:28N 35°26' E 139°43'0 0.1
2017-Sep-19 14:00N 35°26' E 139°43'2 4.6
2017-Sep-19 13:31N 35°26' E 139°46'5 9.0
2017-Sep-19 13:00N 35°21' E 139°45'4 8.4
2017-Sep-19 12:30N 35°17' E 139°46'4 8.5
2017-Sep-19 12:00N 35°13' E 139°47'5 9.3
2017-Sep-19 11:30N 35°09' E 139°46'5 9.9
2017-Sep-19 11:00N 35°05' E 139°42'510.2
2017-Sep-19 10:30N 35°01' E 139°38'610.8
2017-Sep-19 09:58N 34°57' E 139°32'  
Track history (hours):
 
Tides and Currents Weather Stations Pressure Air Temp Water Temp Dewpoint Dewpoint Depression Visibility Wind Speed Wind Dir Waves Ship Positions

Hai Run

Last reported at 2017-Sep-28 09:06 UTC. Time now 2017-Oct-23 04:35 UTC.
Position N 29°25' E 122°25'.
Warning: this ship's position is 24 days out of date.

Length 78 m; draft 4.5 m.

Type: Cargo ship. MMSI: 667001730.

Date/timePositionNaut miles runAvg speedWind from/ knotsBaromVisibWave heightAir tempDewpointWater temp
2017-Sep-28 09:06N 29°25' E 122°25'110.4
2017-Sep-28 08:58N 29°26' E 122°26'5 9.7
2017-Sep-28 08:30N 29°30' E 122°28'8 9.6
2017-Sep-28 07:40N 29°37' E 122°33'210.0
2017-Sep-28 07:28N 29°39' E 122°34'5 9.3
2017-Sep-28 06:54N 29°43' E 122°37'510.3
2017-Sep-28 06:26N 29°48' E 122°38'  
2017-Sep-23 22:17N 34°09' E 134°44'16 8.8
2017-Sep-23 20:29N 33°57' E 134°57'255 6.0
2017-Sep-22 02:00N 35°31' E 139°45'0 0.0
2017-Sep-22 01:24N 35°31' E 139°45'0 0.0
2017-Sep-22 00:57N 35°31' E 139°45'0 0.0
2017-Sep-22 00:30N 35°31' E 139°45'0 0.0
2017-Sep-22 00:00N 35°31' E 139°45'0 0.0
2017-Sep-21 23:30N 35°31' E 139°45'0 0.0
2017-Sep-21 23:00N 35°31' E 139°45'0 0.0
2017-Sep-21 22:30N 35°31' E 139°45'0 0.0
2017-Sep-21 22:00N 35°31' E 139°45'0 0.0
2017-Sep-21 21:30N 35°31' E 139°45'0 0.0
2017-Sep-21 21:00N 35°31' E 139°45'0 0.0
2017-Sep-21 20:30N 35°31' E 139°45'0 0.0
2017-Sep-21 20:00N 35°31' E 139°45'0 0.0
2017-Sep-21 19:30N 35°31' E 139°45'0 0.0
2017-Sep-21 19:00N 35°31' E 139°45'0 0.0
2017-Sep-21 18:30N 35°31' E 139°45'0 0.0
2017-Sep-21 18:00N 35°31' E 139°45'0 0.0
2017-Sep-21 17:30N 35°31' E 139°45'0 0.0
2017-Sep-21 17:00N 35°31' E 139°45'0 0.0
2017-Sep-21 16:30N 35°31' E 139°45'0 0.0
2017-Sep-21 16:00N 35°31' E 139°45'0 0.0
2017-Sep-21 15:30N 35°31' E 139°45'0 0.0
2017-Sep-21 15:00N 35°31' E 139°45'0 0.0
2017-Sep-21 14:30N 35°31' E 139°45'0 0.0
2017-Sep-21 14:00N 35°31' E 139°45'0 0.0
2017-Sep-21 13:30N 35°31' E 139°45'0 0.0
2017-Sep-21 13:00N 35°31' E 139°45'0 0.0
2017-Sep-21 12:30N 35°31' E 139°45'0 0.0
2017-Sep-21 12:00N 35°31' E 139°45'0 0.0
2017-Sep-21 11:30N 35°31' E 139°45'0 0.0
2017-Sep-21 11:00N 35°31' E 139°45'0 0.0
2017-Sep-21 10:30N 35°31' E 139°45'0 0.0
2017-Sep-21 09:57N 35°31' E 139°45'0 0.0
2017-Sep-21 09:30N 35°31' E 139°45'0 0.0
2017-Sep-21 08:57N 35°31' E 139°45'0 0.0
2017-Sep-21 08:30N 35°31' E 139°45'0 0.0
2017-Sep-21 08:00N 35°31' E 139°45'0 0.0
2017-Sep-21 07:30N 35°31' E 139°45'0 0.0
2017-Sep-21 07:00N 35°31' E 139°45'0 0.0
2017-Sep-21 06:30N 35°31' E 139°45'0 0.0
2017-Sep-21 06:00N 35°31' E 139°45'0 0.0
2017-Sep-21 05:30N 35°31' E 139°45'0 0.0
2017-Sep-21 05:00N 35°31' E 139°45'0 0.0
2017-Sep-21 04:30N 35°31' E 139°45'0 0.0
2017-Sep-21 04:00N 35°31' E 139°45'0 0.0
2017-Sep-21 03:30N 35°31' E 139°45'0 0.0
2017-Sep-21 03:00N 35°31' E 139°45'0 0.0
2017-Sep-21 02:30N 35°31' E 139°45'0 0.0
2017-Sep-21 02:00N 35°31' E 139°45'0 0.0
2017-Sep-21 01:30N 35°31' E 139°45'0 0.0
2017-Sep-21 01:00N 35°31' E 139°45'0 0.0
2017-Sep-21 00:30N 35°31' E 139°45'0 0.0
2017-Sep-20 23:54N 35°31' E 139°45'0 0.0
2017-Sep-20 23:27N 35°31' E 139°45'0 0.0
2017-Sep-20 22:59N 35°31' E 139°45'0 0.0
2017-Sep-20 22:29N 35°31' E 139°45'0 0.0
2017-Sep-20 21:59N 35°31' E 139°45'0 0.0
2017-Sep-20 21:29N 35°31' E 139°45'0 0.0
2017-Sep-20 20:59N 35°31' E 139°45'0 0.0
2017-Sep-20 20:29N 35°31' E 139°45'0 0.0
2017-Sep-20 19:59N 35°31' E 139°45'0 0.0
2017-Sep-20 19:29N 35°31' E 139°45'0 0.0
2017-Sep-20 18:59N 35°31' E 139°45'0 0.0
2017-Sep-20 18:29N 35°31' E 139°45'0 0.0
2017-Sep-20 17:59N 35°31' E 139°45'0 0.0
2017-Sep-20 17:26N 35°31' E 139°45'0 0.0
2017-Sep-20 16:59N 35°31' E 139°45'0 0.0
2017-Sep-20 16:29N 35°31' E 139°45'0 0.0
2017-Sep-20 15:59N 35°31' E 139°45'0 0.0
2017-Sep-20 15:29N 35°31' E 139°45'0 0.0
2017-Sep-20 14:56N 35°31' E 139°45'0 0.0
2017-Sep-20 13:44N 35°31' E 139°45'0 0.0
2017-Sep-20 13:17N 35°31' E 139°45'0 0.0
2017-Sep-20 12:59N 35°31' E 139°45'0 0.0
2017-Sep-20 12:29N 35°31' E 139°45'0 0.0
2017-Sep-20 11:47N 35°31' E 139°45'0 0.0
2017-Sep-20 11:29N 35°31' E 139°45'0 0.0
2017-Sep-20 10:59N 35°31' E 139°45'0 0.0
2017-Sep-20 10:23N 35°31' E 139°45'0 0.0
2017-Sep-20 09:59N 35°31' E 139°45'0 0.0
2017-Sep-20 09:29N 35°31' E 139°45'0 0.0
2017-Sep-20 08:59N 35°31' E 139°45'0 0.0
2017-Sep-20 08:29N 35°31' E 139°45'0 0.0
2017-Sep-20 07:59N 35°31' E 139°45'0 0.0
2017-Sep-20 07:29N 35°31' E 139°45'0 0.0
2017-Sep-20 06:59N 35°31' E 139°45'0 0.0
2017-Sep-20 06:26N 35°31' E 139°45'0 0.0
2017-Sep-20 05:59N 35°31' E 139°45'0 0.0
2017-Sep-20 05:29N 35°31' E 139°45'0 0.0
2017-Sep-20 04:59N 35°31' E 139°45'0 0.0
2017-Sep-20 04:29N 35°31' E 139°45'0 0.0
2017-Sep-20 03:56N 35°31' E 139°45'0 0.0
2017-Sep-20 03:26N 35°31' E 139°45'0 0.0
2017-Sep-20 02:59N 35°31' E 139°45'0 0.0
2017-Sep-20 02:26N 35°31' E 139°45'0 0.0
2017-Sep-20 01:59N 35°31' E 139°45'0 0.0
2017-Sep-20 01:26N 35°31' E 139°45'0 0.0
2017-Sep-20 00:59N 35°31' E 139°45'0 0.0
2017-Sep-20 00:29N 35°31' E 139°45'0 0.0
2017-Sep-19 23:59N 35°31' E 139°45'0 0.0
2017-Sep-19 23:29N 35°31' E 139°45'0 0.0
2017-Sep-19 22:59N 35°31' E 139°45'0 0.0
2017-Sep-19 22:29N 35°31' E 139°45'1 1.7
2017-Sep-19 22:00N 35°30' E 139°45'3 6.6
2017-Sep-19 21:30N 35°27' E 139°43'1 1.6
2017-Sep-19 20:59N 35°26' E 139°43'0 0.0
2017-Sep-19 20:29N 35°26' E 139°43'0 0.0
2017-Sep-19 19:58N 35°26' E 139°43'0 0.0
2017-Sep-19 19:28N 35°26' E 139°43'0 0.1
2017-Sep-19 18:58N 35°26' E 139°43'0 0.0
2017-Sep-19 18:28N 35°26' E 139°43'0 0.0
2017-Sep-19 17:58N 35°26' E 139°43'0 0.0
2017-Sep-19 17:28N 35°26' E 139°43'0 0.0
2017-Sep-19 16:58N 35°26' E 139°43'0 0.0
2017-Sep-19 16:28N 35°26' E 139°43'0 0.0
2017-Sep-19 15:58N 35°26' E 139°43'0 0.0
2017-Sep-19 15:28N 35°26' E 139°43'0 0.0
2017-Sep-19 14:58N 35°26' E 139°43'0 0.0
2017-Sep-19 14:28N 35°26' E 139°43'0 0.1
2017-Sep-19 14:00N 35°26' E 139°43'2 4.6
2017-Sep-19 13:31N 35°26' E 139°46'5 9.0
2017-Sep-19 13:00N 35°21' E 139°45'4 8.4
2017-Sep-19 12:30N 35°17' E 139°46'4 8.5
2017-Sep-19 12:00N 35°13' E 139°47'5 9.3
2017-Sep-19 11:30N 35°09' E 139°46'5 9.9
2017-Sep-19 11:00N 35°05' E 139°42'510.2
2017-Sep-19 10:30N 35°01' E 139°38'610.8
2017-Sep-19 09:58N 34°57' E 139°32'  

Dump ship's entire track history